createdAt,value
2018-09-04T00:02:20.405Z,68.00
2018-09-04T00:04:48.631Z,67.00
2018-09-04T00:07:16.892Z,67.40
2018-09-04T00:09:45.109Z,67.00
2018-09-04T00:12:13.310Z,67.20
2018-09-04T00:14:42.309Z,67.30
2018-09-04T00:17:11.317Z,67.50
2018-09-04T00:19:39.582Z,67.50
2018-09-04T00:22:08.550Z,67.40
2018-09-04T00:24:36.869Z,67.30
2018-09-04T00:27:05.031Z,67.60
2018-09-04T00:29:34.003Z,67.50
2018-09-04T00:32:02.971Z,67.40
2018-09-04T00:34:31.253Z,67.40
2018-09-04T00:37:00.269Z,68.20
2018-09-04T00:39:28.518Z,68.20
2018-09-04T00:41:56.757Z,68.20
2018-09-04T00:44:25.028Z,67.90
2018-09-04T00:46:53.229Z,68.60
2018-09-04T00:49:22.259Z,68.20
2018-09-04T00:51:50.472Z,68.20
2018-09-04T00:54:18.728Z,68.10
2018-09-04T00:56:47.696Z,74.00
2018-09-04T00:59:15.918Z,73.80
2018-09-04T01:01:44.124Z,68.40
2018-09-04T01:04:13.162Z,70.10
2018-09-04T01:06:42.182Z,68.40
2018-09-04T01:09:10.407Z,68.40
2018-09-04T01:11:38.608Z,68.20
2018-09-04T01:14:07.644Z,68.50
2018-09-04T01:16:35.836Z,68.50
2018-09-04T01:19:04.094Z,69.10
2018-09-04T01:21:32.350Z,69.00
2018-09-04T01:24:00.582Z,69.20
2018-09-04T01:26:28.786Z,68.30
2018-09-04T01:28:58.144Z,68.70
2018-09-04T01:31:26.357Z,68.70
2018-09-04T01:33:55.407Z,72.10
2018-09-04T01:36:23.603Z,72.60
2018-09-04T01:38:51.867Z,69.00
2018-09-04T01:41:20.112Z,71.20
2018-09-04T01:43:48.378Z,68.90
2018-09-04T01:46:17.346Z,70.40
2018-09-04T01:48:45.562Z,70.50
2018-09-04T01:51:13.815Z,70.60
2018-09-04T01:53:42.793Z,69.00
2018-09-04T01:56:10.999Z,69.00
2018-09-04T01:58:39.264Z,69.00
2018-09-04T02:01:08.267Z,68.80
2018-09-04T02:03:37.298Z,69.00
2018-09-04T02:06:05.506Z,69.00
2018-09-04T02:08:33.763Z,68.90
2018-09-04T02:11:02.022Z,68.90
2018-09-04T02:13:30.234Z,69.10
2018-09-04T02:15:58.461Z,69.00
2018-09-04T02:18:26.713Z,68.90
2018-09-04T02:20:55.735Z,68.90
2018-09-04T02:23:23.975Z,68.90
2018-09-04T02:25:52.964Z,69.80
2018-09-04T02:28:21.989Z,69.40
2018-09-04T02:30:50.207Z,69.50
2018-09-04T02:33:18.470Z,69.50
2018-09-04T02:35:46.740Z,69.60
2018-09-04T02:38:14.990Z,69.80
2018-09-04T02:40:43.251Z,69.90
2018-09-04T02:43:12.225Z,70.10
2018-09-04T02:45:40.448Z,70.20
2018-09-04T02:48:08.705Z,69.90
2018-09-04T02:50:37.685Z,69.50
2018-09-04T02:53:06.663Z,69.90
2018-09-04T02:55:34.887Z,69.80
2018-09-04T02:58:03.155Z,70.00
2018-09-04T03:00:32.153Z,69.80
2018-09-04T03:03:00.412Z,69.80
2018-09-04T03:05:29.385Z,69.70
2018-09-04T03:07:57.631Z,69.60
2018-09-04T03:10:25.885Z,71.80
2018-09-04T03:12:54.082Z,69.90
2018-09-04T03:15:22.303Z,70.00
2018-09-04T03:17:51.321Z,70.00
2018-09-04T03:20:19.537Z,69.90
2018-09-04T03:22:47.793Z,70.10
2018-09-04T03:25:16.047Z,70.30
2018-09-04T03:27:44.248Z,70.20
2018-09-04T03:30:12.523Z,70.70
2018-09-04T03:32:40.721Z,71.40
2018-09-04T03:35:08.984Z,70.40
2018-09-04T03:37:37.178Z,70.40
2018-09-04T03:40:05.450Z,70.80
2018-09-04T03:42:33.766Z,70.80
2018-09-04T03:45:01.925Z,70.60
2018-09-04T03:47:30.128Z,70.80
2018-09-04T03:49:58.397Z,70.90
2018-09-04T03:52:27.550Z,70.10
2018-09-04T03:54:55.667Z,70.00
2018-09-04T03:57:24.679Z,70.80
2018-09-04T03:59:52.948Z,70.80
2018-09-04T04:02:21.916Z,71.10
2018-09-04T04:04:50.948Z,71.10
2018-09-04T04:07:19.188Z,70.70
2018-09-04T04:09:47.450Z,71.50
2018-09-04T04:12:15.658Z,71.00
2018-09-04T04:14:44.690Z,71.50
2018-09-04T04:17:12.892Z,71.50
2018-09-04T04:19:41.159Z,78.50
2018-09-04T04:22:09.419Z,72.40
2018-09-04T04:24:37.677Z,72.00
2018-09-04T04:27:05.892Z,71.20
2018-09-04T04:29:34.119Z,70.90
2018-09-04T04:32:02.338Z,71.00
2018-09-04T04:34:30.604Z,74.10
2018-09-04T04:36:58.816Z,70.80
2018-09-04T04:39:27.053Z,70.60
2018-09-04T04:41:55.354Z,70.50
2018-09-04T04:44:23.588Z,70.90
2018-09-04T04:46:51.835Z,71.10
2018-09-04T04:49:20.082Z,71.10
2018-09-04T04:51:48.336Z,71.00
2018-09-04T04:54:16.594Z,70.90
2018-09-04T04:56:44.788Z,71.50
2018-09-04T04:59:13.060Z,71.80
2018-09-04T05:01:41.260Z,71.60
2018-09-04T05:04:09.498Z,72.20
2018-09-04T05:06:37.762Z,71.30
2018-09-04T05:09:06.745Z,71.50
2018-09-04T05:11:35.808Z,72.10
2018-09-04T05:14:03.972Z,72.00
2018-09-04T05:16:32.999Z,71.40
2018-09-04T05:19:01.199Z,71.70
2018-09-04T05:21:29.415Z,71.60
2018-09-04T05:23:57.643Z,71.50
2018-09-04T05:26:26.669Z,71.80
2018-09-04T05:28:54.881Z,71.80
2018-09-04T05:31:23.131Z,71.60
2018-09-04T05:33:51.342Z,73.80
2018-09-04T05:36:19.543Z,72.30
2018-09-04T05:38:47.818Z,71.90
2018-09-04T05:41:16.834Z,72.20
2018-09-04T05:43:45.938Z,72.20
2018-09-04T05:46:14.183Z,78.40
2018-09-04T05:48:43.207Z,72.20
2018-09-04T05:51:11.456Z,72.30
2018-09-04T05:53:40.476Z,72.50
2018-09-04T05:56:08.724Z,71.80
2018-09-04T05:58:37.744Z,71.70
2018-09-04T06:01:05.962Z,71.70
2018-09-04T06:03:34.235Z,72.00
2018-09-04T06:06:02.500Z,73.00
2018-09-04T06:08:30.728Z,72.50
2018-09-04T06:10:59.708Z,72.90
2018-09-04T06:13:28.728Z,73.70
2018-09-04T06:15:56.947Z,73.20
2018-09-04T06:18:25.199Z,72.70
2018-09-04T06:20:53.431Z,72.70
2018-09-04T06:23:22.446Z,73.20
2018-09-04T06:25:51.470Z,72.70
2018-09-04T06:28:19.712Z,72.70
2018-09-04T06:30:48.719Z,72.30
2018-09-04T06:33:16.929Z,72.20
2018-09-04T06:35:45.207Z,72.30
2018-09-04T06:38:13.454Z,72.60
2018-09-04T06:40:41.712Z,72.40
2018-09-04T06:43:10.696Z,72.30
2018-09-04T06:45:39.744Z,72.50
2018-09-04T06:48:07.956Z,72.50
2018-09-04T06:50:36.205Z,72.10
2018-09-04T06:53:04.415Z,72.20
2018-09-04T06:55:33.450Z,72.00
2018-09-04T06:58:01.737Z,72.00
2018-09-04T07:00:29.940Z,73.00
2018-09-04T07:02:58.140Z,72.30
2018-09-04T07:05:27.159Z,73.20
2018-09-04T07:07:55.427Z,73.20
2018-09-04T07:10:23.676Z,73.20
2018-09-04T07:12:51.859Z,72.80
2018-09-04T07:15:20.859Z,73.40
2018-09-04T07:17:49.836Z,73.40
2018-09-04T07:20:18.103Z,73.50
2018-09-04T07:22:46.309Z,73.40
2018-09-04T07:25:15.340Z,74.90
2018-09-04T07:27:43.597Z,74.80
2018-09-04T07:30:12.618Z,73.20
2018-09-04T07:32:40.871Z,73.30
2018-09-04T07:35:09.906Z,74.20
2018-09-04T07:37:38.150Z,74.20
2018-09-04T07:40:06.416Z,74.20
2018-09-04T07:42:35.385Z,73.10
2018-09-04T07:45:03.622Z,73.10
2018-09-04T07:47:31.879Z,73.20
2018-09-04T07:50:00.095Z,73.20
2018-09-04T07:52:28.307Z,72.90
2018-09-04T07:54:57.352Z,73.30
2018-09-04T07:57:26.366Z,74.10
2018-09-04T07:59:54.645Z,74.10
2018-09-04T08:02:22.842Z,74.50
2018-09-04T08:04:51.825Z,72.90
2018-09-04T08:07:20.079Z,72.90
2018-09-04T08:09:48.339Z,73.40
2018-09-04T08:12:16.552Z,78.00
2018-09-04T08:14:44.771Z,74.20
2018-09-04T08:17:13.003Z,73.70
2018-09-04T08:19:41.209Z,73.70
2018-09-04T08:22:09.477Z,74.60
2018-09-04T08:24:38.467Z,75.80
2018-09-04T08:27:07.483Z,73.90
2018-09-04T08:29:35.739Z,73.90
2018-09-04T08:32:04.754Z,74.90
2018-09-04T08:34:33.016Z,74.70
2018-09-04T08:37:01.993Z,75.10
2018-09-04T08:39:30.212Z,75.00
2018-09-04T08:41:58.438Z,74.60
2018-09-04T08:44:26.651Z,74.00
2018-09-04T08:46:54.884Z,78.20
2018-09-04T08:49:23.133Z,76.40
2018-09-04T08:51:51.349Z,75.80
2018-09-04T08:54:20.337Z,75.60
2018-09-04T08:56:48.569Z,75.50
2018-09-04T08:59:16.799Z,74.50
2018-09-04T09:01:45.057Z,74.90
2018-09-04T09:04:13.318Z,75.40
2018-09-04T09:06:41.575Z,76.00
2018-09-04T09:09:09.805Z,75.20
2018-09-04T09:11:38.051Z,75.30
2018-09-04T09:14:06.259Z,75.10
2018-09-04T09:16:35.313Z,75.80
2018-09-04T09:19:04.236Z,75.10
2018-09-04T09:21:32.512Z,75.10
2018-09-04T09:24:00.767Z,75.10
2018-09-04T09:26:29.013Z,74.60
2018-09-04T09:28:57.279Z,75.50
2018-09-04T09:31:25.539Z,76.30
2018-09-04T09:33:55.308Z,76.80
2018-09-04T09:36:23.534Z,76.80
2018-09-04T09:38:52.547Z,76.90
2018-09-04T09:41:20.812Z,76.90
2018-09-04T09:43:49.779Z,81.20
2018-09-04T09:46:18.776Z,77.50
2018-09-04T09:48:47.805Z,78.00
2018-09-04T09:51:16.025Z,78.00
2018-09-04T09:53:44.240Z,77.70
2018-09-04T09:56:13.319Z,78.30
2018-09-04T09:58:41.520Z,78.30
2018-09-04T10:01:10.548Z,77.30
2018-09-04T10:03:38.807Z,78.00
2018-09-04T10:06:07.036Z,77.10
2018-09-04T10:08:35.304Z,77.60
2018-09-04T10:11:03.523Z,77.50
2018-09-04T10:13:31.774Z,77.10
2018-09-04T10:16:00.798Z,76.70
2018-09-04T10:18:29.047Z,76.50
2018-09-04T10:20:58.086Z,75.20
2018-09-04T10:23:26.298Z,74.80
2018-09-04T10:25:54.562Z,76.60
2018-09-04T10:28:22.814Z,76.50
2018-09-04T10:30:51.036Z,75.90
2018-09-04T10:33:19.327Z,75.60
2018-09-04T10:35:47.575Z,75.00
2018-09-04T10:38:15.827Z,75.60
2018-09-04T10:40:44.076Z,74.90
2018-09-04T10:43:12.289Z,72.70
2018-09-04T10:45:40.548Z,73.50
2018-09-04T10:48:08.800Z,74.50
2018-09-04T10:50:37.823Z,72.00
2018-09-04T10:53:06.067Z,72.00
2018-09-04T10:55:35.052Z,74.30
2018-09-04T10:58:04.039Z,73.50
2018-09-04T11:00:32.270Z,73.60
2018-09-04T11:03:00.516Z,74.00
2018-09-04T11:05:30.395Z,73.90
2018-09-04T11:07:58.623Z,74.20
2018-09-04T11:10:26.862Z,73.50
2018-09-04T11:12:55.162Z,74.20
2018-09-04T11:15:23.476Z,73.50
2018-09-04T11:17:52.548Z,74.50
2018-09-04T11:20:20.768Z,74.40
2018-09-04T11:22:49.031Z,74.40
2018-09-04T11:25:17.236Z,72.50
2018-09-04T11:27:46.243Z,69.80
2018-09-04T11:30:15.276Z,71.10
2018-09-04T11:32:43.536Z,71.40
2018-09-04T11:35:11.752Z,68.90
2018-09-04T11:37:40.022Z,72.60
2018-09-04T11:40:08.264Z,69.70
2018-09-04T11:42:36.508Z,72.10
2018-09-04T11:45:04.700Z,66.80
2018-09-04T11:47:32.947Z,70.80
2018-09-04T11:50:01.193Z,70.40
2018-09-04T11:52:29.482Z,68.20
2018-09-04T11:54:58.435Z,65.50
2018-09-04T11:57:26.657Z,64.30
2018-09-04T11:59:54.877Z,60.80
2018-09-04T12:02:23.917Z,68.80
2018-09-04T12:04:52.173Z,68.80
2018-09-04T12:07:20.424Z,70.00
2018-09-04T12:09:49.403Z,67.60
2018-09-04T12:12:17.749Z,66.40
2018-09-04T12:14:46.830Z,55.50
2018-09-04T12:17:15.036Z,57.80
2018-09-04T12:19:43.314Z,54.50
2018-09-04T12:22:11.564Z,62.30
2018-09-04T12:24:39.838Z,67.00
2018-09-04T12:27:08.164Z,64.30
2018-09-04T12:29:36.329Z,64.60
2018-09-04T12:32:04.551Z,61.20
2018-09-04T12:34:32.835Z,67.10
2018-09-04T12:37:01.051Z,67.40
2018-09-04T12:39:29.299Z,66.90
2018-09-04T12:41:57.568Z,65.10
2018-09-04T12:44:25.847Z,67.30
2018-09-04T12:46:54.083Z,65.30
2018-09-04T12:49:23.060Z,67.60
2018-09-04T12:51:51.332Z,67.50
2018-09-04T12:54:19.588Z,65.00
2018-09-04T12:56:48.631Z,64.60
2018-09-04T12:59:16.871Z,62.40
2018-09-04T13:01:45.159Z,62.70
2018-09-04T13:04:13.397Z,64.70
2018-09-04T13:06:41.667Z,64.60
2018-09-04T13:09:10.024Z,64.00
2018-09-04T13:11:38.185Z,63.00
2018-09-04T13:14:07.205Z,61.40
2018-09-04T13:16:35.431Z,60.00
2018-09-04T13:19:04.277Z,55.10
2018-09-04T13:21:32.551Z,54.60
2018-09-04T13:24:00.771Z,59.20
2018-09-04T13:26:28.994Z,54.90
2018-09-04T13:28:57.225Z,54.70
2018-09-04T13:31:25.536Z,52.40
2018-09-04T13:33:53.757Z,59.20
2018-09-04T13:36:22.021Z,55.90
2018-09-04T13:38:50.230Z,59.20
2018-09-04T13:41:18.503Z,55.80
2018-09-04T13:43:46.728Z,48.20
2018-09-04T13:46:15.708Z,59.20
2018-09-04T13:48:43.996Z,59.30
2018-09-04T13:51:12.201Z,58.10
2018-09-04T13:53:40.424Z,54.60
2018-09-04T13:56:09.413Z,46.80
2018-09-04T13:58:37.674Z,46.70
2018-09-04T14:01:05.892Z,58.20
2018-09-04T14:03:34.876Z,60.40
2018-09-04T14:06:03.853Z,59.70
2018-09-04T14:08:32.127Z,59.80
2018-09-04T14:11:00.391Z,48.80
2018-09-04T14:13:28.643Z,58.70
2018-09-04T14:15:57.204Z,49.20
2018-09-04T14:18:25.444Z,58.20
2018-09-04T14:20:53.717Z,58.30
2018-09-04T14:23:21.957Z,49.20
2018-09-04T14:25:50.185Z,48.30
2018-09-04T14:28:40.974Z,57.10
2018-09-04T14:30:47.450Z,57.10
2018-09-04T14:33:16.624Z,49.50
2018-09-04T14:35:44.852Z,49.50
2018-09-04T14:38:13.148Z,47.90
2018-09-04T14:40:41.357Z,51.50
2018-09-04T14:43:09.637Z,51.10
2018-09-04T14:45:37.861Z,49.50
2018-09-04T14:48:06.114Z,53.70
2018-09-04T14:50:34.321Z,55.20
2018-09-04T14:53:02.550Z,51.60
2018-09-04T14:55:30.801Z,49.50
2018-09-04T14:57:59.069Z,46.30
2018-09-04T15:00:27.337Z,51.70
2018-09-04T15:02:56.471Z,47.30
2018-09-04T15:05:24.681Z,51.50
2018-09-04T15:07:53.671Z,52.00
2018-09-04T15:10:22.655Z,53.90
2018-09-04T15:12:50.933Z,54.10
2018-09-04T15:15:19.148Z,43.50
2018-09-04T15:17:47.424Z,54.10
2018-09-04T15:20:15.634Z,43.00
2018-09-04T15:22:43.873Z,43.30
2018-09-04T15:25:12.216Z,46.80
2018-09-04T15:27:40.437Z,50.10
2018-09-04T15:30:08.631Z,52.90
2018-09-04T15:32:36.915Z,47.50
2018-09-04T15:35:05.139Z,49.10
2018-09-04T15:37:33.439Z,45.70
2018-09-04T15:40:01.645Z,48.40
2018-09-04T15:42:29.931Z,47.90
2018-09-04T15:44:58.139Z,45.50
2018-09-04T15:47:27.121Z,51.90
2018-09-04T15:49:56.157Z,49.80
2018-09-04T15:52:24.473Z,49.90
2018-09-04T15:54:52.688Z,51.10
2018-09-04T15:57:21.681Z,51.90
2018-09-04T15:59:49.898Z,51.90
2018-09-04T16:02:18.124Z,51.00
2018-09-04T16:04:47.109Z,52.40
2018-09-04T16:07:16.134Z,52.80
2018-09-04T16:09:44.417Z,52.60
2018-09-04T16:12:12.571Z,52.70
2018-09-04T16:14:42.198Z,53.30
2018-09-04T16:17:10.424Z,53.30
2018-09-04T16:19:38.650Z,53.20
2018-09-04T16:22:06.881Z,52.40
2018-09-04T16:24:35.161Z,52.50
2018-09-04T16:27:03.368Z,53.50
2018-09-04T16:29:31.933Z,51.90
2018-09-04T16:32:00.231Z,53.40
2018-09-04T16:34:29.202Z,53.90
2018-09-04T16:36:57.379Z,53.80
2018-09-04T16:39:25.677Z,54.40
2018-09-04T16:41:53.898Z,54.50
2018-09-04T16:44:22.495Z,54.50
2018-09-04T16:46:50.696Z,54.60
2018-09-04T16:49:19.686Z,54.60
2018-09-04T16:51:48.676Z,55.60
2018-09-04T16:54:16.946Z,55.00
2018-09-04T16:56:45.220Z,54.90
2018-09-04T16:59:13.413Z,55.10
2018-09-04T17:01:42.450Z,55.10
2018-09-04T17:04:10.715Z,55.10
2018-09-04T17:06:38.926Z,55.10
2018-09-04T17:09:07.196Z,55.10
2018-09-04T17:11:35.448Z,55.30
2018-09-04T17:14:03.731Z,55.30
2018-09-04T17:16:31.951Z,55.50
2018-09-04T17:19:00.223Z,55.30
2018-09-04T17:21:28.445Z,55.40
2018-09-04T17:23:56.734Z,55.30
2018-09-04T17:26:25.675Z,56.40
2018-09-04T17:28:53.973Z,56.50
2018-09-04T17:31:22.193Z,56.20
2018-09-04T17:33:50.410Z,57.50
2018-09-04T17:36:18.691Z,56.30
2018-09-04T17:38:46.956Z,56.70
2018-09-04T17:41:15.193Z,55.80
2018-09-04T17:43:43.435Z,55.70
2018-09-04T17:46:11.627Z,56.40
2018-09-04T17:48:39.938Z,55.90
2018-09-04T17:51:08.197Z,56.00
2018-09-04T17:53:36.457Z,56.40
2018-09-04T17:56:04.679Z,58.90
2018-09-04T17:58:32.927Z,56.70
2018-09-04T18:01:01.162Z,57.30
2018-09-04T18:03:29.384Z,56.60
2018-09-04T18:05:57.600Z,56.70
2018-09-04T18:08:25.863Z,56.50
2018-09-04T18:10:54.090Z,56.60
2018-09-04T18:13:22.352Z,56.90
2018-09-04T18:15:51.326Z,56.80
2018-09-04T18:18:19.547Z,56.70
2018-09-04T18:20:47.807Z,58.00
2018-09-04T18:23:16.860Z,58.30
2018-09-04T18:25:45.143Z,58.40
2018-09-04T18:28:13.432Z,61.40
2018-09-04T18:30:41.676Z,58.30
2018-09-04T18:33:09.964Z,58.10
2018-09-04T18:35:38.204Z,58.30
2018-09-04T18:38:06.444Z,57.50
2018-09-04T18:40:35.429Z,57.90
2018-09-04T18:43:03.662Z,58.10
2018-09-04T18:45:31.914Z,57.40
2018-09-04T18:48:00.191Z,57.20
2018-09-04T18:50:28.448Z,57.20
2018-09-04T18:52:57.544Z,57.30
2018-09-04T18:55:26.811Z,57.30
2018-09-04T18:57:55.146Z,57.30
2018-09-04T19:00:23.487Z,57.40
2018-09-04T19:02:51.795Z,57.50
2018-09-04T19:05:20.892Z,58.00
2018-09-04T19:07:50.493Z,58.30
2018-09-04T19:10:18.832Z,58.30
2018-09-04T19:12:47.207Z,59.00
2018-09-04T19:15:15.497Z,58.10
2018-09-04T19:17:43.840Z,58.00
2018-09-04T19:20:12.160Z,57.80
2018-09-04T19:22:40.453Z,59.60
2018-09-04T19:25:08.730Z,58.70
2018-09-04T19:27:37.011Z,61.00
2018-09-04T19:30:05.363Z,59.70
2018-09-04T19:32:33.622Z,60.00
2018-09-04T19:35:01.918Z,58.60
2018-09-04T19:37:30.230Z,58.60
2018-09-04T19:39:58.538Z,59.20
2018-09-04T19:42:26.890Z,58.50
2018-09-04T19:44:55.975Z,58.60
2018-09-04T19:47:25.340Z,58.60
2018-09-04T19:49:53.722Z,60.00
2018-09-04T19:52:22.699Z,64.70
2018-09-04T19:54:50.975Z,64.50
2018-09-04T19:57:19.330Z,61.20
2018-09-04T19:59:47.591Z,59.60
2018-09-04T20:02:16.618Z,60.60
2018-09-04T20:04:44.866Z,60.60
2018-09-04T20:07:13.937Z,58.90
2018-09-04T20:09:42.177Z,58.90
2018-09-04T20:12:10.464Z,58.70
2018-09-04T20:14:38.744Z,58.70
2018-09-04T20:17:07.087Z,58.70
2018-09-04T20:19:36.135Z,58.60
2018-09-04T20:22:04.367Z,58.60
2018-09-04T20:24:32.648Z,59.00
2018-09-04T20:27:00.911Z,59.90
2018-09-04T20:29:29.183Z,58.70
2018-09-04T20:31:57.497Z,58.50
2018-09-04T20:34:25.726Z,58.40
2018-09-04T20:36:54.775Z,58.50
2018-09-04T20:39:22.992Z,58.40
2018-09-04T20:41:52.071Z,58.40
2018-09-04T20:44:20.328Z,58.40
2018-09-04T20:46:49.311Z,58.50
2018-09-04T20:49:17.605Z,58.40
2018-09-04T20:51:45.821Z,58.50
2018-09-04T20:54:14.103Z,58.70
2018-09-04T20:56:43.699Z,59.00
2018-09-04T20:59:23.751Z,59.00
2018-09-04T21:02:04.687Z,60.70
2018-09-04T21:04:44.788Z,60.70
2018-09-04T21:07:12.554Z,60.40
2018-09-04T21:09:41.593Z,58.80
2018-09-04T21:12:09.834Z,58.90
2018-09-04T21:14:38.062Z,58.90
2018-09-04T21:17:06.288Z,59.00
2018-09-04T21:19:34.520Z,58.60
2018-09-04T21:22:02.792Z,58.70
2018-09-04T21:24:31.042Z,60.60
2018-09-04T21:26:59.269Z,58.90
2018-09-04T21:29:27.498Z,59.00
2018-09-04T21:31:55.781Z,58.90
2018-09-04T21:34:23.992Z,59.70
2018-09-04T21:36:53.011Z,59.80
2018-09-04T21:39:22.020Z,59.30
2018-09-04T21:41:50.301Z,59.30
2018-09-04T21:44:18.504Z,59.20
2018-09-04T21:46:46.750Z,59.40
2018-09-04T21:49:15.000Z,59.50
2018-09-04T21:51:43.973Z,59.70
2018-09-04T21:54:12.204Z,59.40
2018-09-04T21:56:40.462Z,60.60
2018-09-04T21:59:09.485Z,60.00
2018-09-04T22:01:37.701Z,59.90
2018-09-04T22:04:05.949Z,59.30
2018-09-04T22:06:34.161Z,59.50
2018-09-04T22:09:03.164Z,59.30
2018-09-04T22:11:32.146Z,59.50
2018-09-04T22:14:01.135Z,60.30
2018-09-04T22:16:29.403Z,61.00
2018-09-04T22:18:57.628Z,59.60
2018-09-04T22:21:25.871Z,59.40
2018-09-04T22:23:54.134Z,59.80
2018-09-04T22:26:22.355Z,59.80
2018-09-04T22:28:50.574Z,59.50
2018-09-04T22:31:18.820Z,59.40
2018-09-04T22:33:47.067Z,59.50
2018-09-04T22:36:16.100Z,60.30
2018-09-04T22:38:44.306Z,60.20
2018-09-04T22:41:12.521Z,59.50
2018-09-04T22:43:40.756Z,59.10
2018-09-04T22:46:08.999Z,59.40
2018-09-04T22:48:37.244Z,59.40
2018-09-04T22:54:06.097Z,59.90
2018-09-04T22:56:34.352Z,60.00
2018-09-04T22:59:02.571Z,60.20
2018-09-04T23:01:30.783Z,60.00
2018-09-04T23:03:59.784Z,59.60
2018-09-04T23:06:27.998Z,59.70
2018-09-04T23:08:57.037Z,60.00
2018-09-04T23:11:25.286Z,60.00
2018-09-04T23:13:53.571Z,59.90
2018-09-04T23:16:21.807Z,60.40
2018-09-04T23:18:50.078Z,60.10
2018-09-04T23:21:18.339Z,59.60
2018-09-04T23:23:47.309Z,59.90
2018-09-04T23:26:15.596Z,59.80
2018-09-04T23:28:44.607Z,66.70
2018-09-04T23:31:12.863Z,66.20
2018-09-04T23:33:41.872Z,65.10
2018-09-04T23:36:10.898Z,60.60
2018-09-04T23:38:39.147Z,60.60
2018-09-04T23:41:07.419Z,60.10
2018-09-04T23:43:36.383Z,60.60
2018-09-04T23:46:04.670Z,60.60
2018-09-04T23:48:32.911Z,62.30
2018-09-04T23:51:01.151Z,60.20
2018-09-04T23:53:30.173Z,60.20
2018-09-04T23:55:58.407Z,60.20
2018-09-04T23:58:27.455Z,59.70
